Time;durP1;ratioP1;P1;durP2;ratioP2;P2;SDS_P1;SDS_P2;PMS_P1;PMS_P2;Temp;Humidity;BMP_temperature;BMP_pressure;BME280_temperature;BME280_humidity;BME280_pressure;Samples;Min_cycle;Max_cycle;Signal;HPM_P1;HPM_P2
2022/08/31 00:04:39;;;;;;;0.70;0.70;;;13.90;99.90;;;;;;6291358;28;20294;-68
2022/08/31 00:07:44;;;;;;;0.80;0.80;;;13.90;99.90;;;;;;6309901;28;20302;-68
2022/08/31 00:10:53;;;;;;;1.15;0.80;;;13.80;99.90;;;;;;6309746;28;20433;-68
2022/08/31 00:14:05;;;;;;;2.08;1.17;;;13.80;99.90;;;;;;6310476;28;20467;-68
2022/08/31 00:17:15;;;;;;;0.70;0.70;;;13.80;99.90;;;;;;6309419;28;20482;-68
2022/08/31 00:20:23;;;;;;;0.73;0.73;;;13.80;99.90;;;;;;6309728;28;20554;-68
2022/08/31 00:23:38;;;;;;;0.77;0.77;;;13.80;99.90;;;;;;6309118;28;20278;-67
2022/08/31 00:26:44;;;;;;;1.20;0.80;;;13.80;99.90;;;;;;6309665;28;20311;-68
2022/08/31 00:29:51;;;;;;;1.55;0.70;;;13.80;99.90;;;;;;6309679;28;20270;-68
2022/08/31 00:32:57;;;;;;;3.50;1.00;;;13.70;99.90;;;;;;6309406;28;20298;-68
2022/08/31 00:36:05;;;;;;;3.30;0.60;;;13.70;99.90;;;;;;6259710;28;20296;-68
2022/08/31 00:39:11;;;;;;;0.77;0.60;;;13.70;99.90;;;;;;6258966;28;20272;-68
2022/08/31 00:42:16;;;;;;;0.85;0.60;;;13.70;99.90;;;;;;6261340;28;20299;-68
2022/08/31 00:45:24;;;;;;;2.72;0.70;;;13.70;99.90;;;;;;6263615;28;20271;-68
2022/08/31 00:48:29;;;;;;;0.80;0.80;;;13.70;99.90;;;;;;6264274;28;20334;-68
2022/08/31 00:51:39;;;;;;;1.95;0.75;;;13.70;99.90;;;;;;6264087;28;20474;-67
2022/08/31 00:54:51;;;;;;;2.45;1.02;;;13.70;99.90;;;;;;6264690;28;20378;-67
2022/08/31 00:58:01;;;;;;;1.30;0.70;;;13.60;99.90;;;;;;6263671;28;20300;-67
2022/08/31 01:01:09;;;;;;;0.80;0.80;;;13.60;99.90;;;;;;6263866;28;20474;-67
2022/08/31 01:04:16;;;;;;;0.80;0.80;;;13.60;99.90;;;;;;6264316;28;20299;-67
2022/08/31 01:07:21;;;;;;;0.57;0.57;;;13.60;99.90;;;;;;6288367;28;20306;-67
2022/08/31 01:10:30;;;;;;;0.88;0.88;;;13.50;99.90;;;;;;6289406;28;20271;-67
2022/08/31 01:13:36;;;;;;;0.98;0.90;;;13.60;99.90;;;;;;6288037;28;20283;-67
2022/08/31 01:16:50;;;;;;;0.93;0.93;;;13.60;99.90;;;;;;6288696;28;20299;-67
2022/08/31 01:20:04;;;;;;;2.03;0.82;;;13.50;99.90;;;;;;6304351;28;20275;-67
2022/08/31 01:23:18;;;;;;;1.15;0.85;;;13.60;99.90;;;;;;6288830;28;20295;-67
2022/08/31 01:26:28;;;;;;;0.70;0.70;;;13.50;99.90;;;;;;6286815;28;20291;-67
2022/08/31 01:29:36;;;;;;;0.63;0.60;;;13.50;99.90;;;;;;6303959;28;20469;-67
2022/08/31 01:32:42;;;;;;;2.40;0.70;;;13.40;99.90;;;;;;6303121;28;20314;-67
2022/08/31 01:35:47;;;;;;;0.57;0.52;;;13.50;99.90;;;;;;6311051;28;20263;-67
2022/08/31 01:38:55;;;;;;;1.38;0.70;;;13.40;99.90;;;;;;6328677;28;20290;-67
2022/08/31 01:42:00;;;;;;;0.70;0.70;;;13.40;99.90;;;;;;6312771;28;20299;-68
2022/08/31 01:45:09;;;;;;;0.85;0.85;;;13.50;99.90;;;;;;6328627;28;20271;-68
2022/08/31 01:48:19;;;;;;;1.73;0.70;;;13.30;99.90;;;;;;6327230;28;20297;-68
2022/08/31 01:51:25;;;;;;;1.02;0.80;;;13.40;99.90;;;;;;6328123;28;20294;-68
2022/08/31 01:54:32;;;;;;;1.75;0.80;;;13.40;99.90;;;;;;6304671;28;20268;-68
2022/08/31 01:57:37;;;;;;;0.75;0.75;;;13.40;99.90;;;;;;6311214;28;20302;-67
2022/08/31 02:01:02;;;;;;;2.08;0.70;;;13.40;99.90;;;;;;6307194;28;20290;-67
2022/08/31 02:04:25;;;;;;;0.90;0.90;;;13.30;99.90;;;;;;6310567;28;20394;-67
2022/08/31 02:07:33;;;;;;;1.75;0.85;;;13.30;99.90;;;;;;6312355;28;20294;-67
2022/08/31 02:10:41;;;;;;;1.40;0.70;;;13.30;99.90;;;;;;6327581;28;20272;-68
2022/08/31 02:13:47;;;;;;;0.77;0.77;;;13.30;99.90;;;;;;6327737;28;20270;-68
2022/08/31 02:16:53;;;;;;;0.80;0.80;;;13.30;99.90;;;;;;6327465;28;20586;-67
2022/08/31 02:19:58;;;;;;;0.82;0.80;;;13.20;99.90;;;;;;6311275;28;20558;-67
2022/08/31 02:23:04;;;;;;;1.55;0.80;;;13.20;99.90;;;;;;6312009;28;20468;-67
2022/08/31 02:26:13;;;;;;;1.05;0.90;;;13.20;99.90;;;;;;6311775;28;20286;-67
2022/08/31 02:29:21;;;;;;;1.00;0.85;;;13.10;99.90;;;;;;6327740;28;20274;-67
2022/08/31 02:32:27;;;;;;;0.80;0.80;;;13.10;99.90;;;;;;6327043;28;20294;-67
2022/08/31 02:35:36;;;;;;;1.42;0.80;;;13.20;99.90;;;;;;6326583;28;20262;-68
2022/08/31 02:38:43;;;;;;;2.55;0.70;;;13.10;99.90;;;;;;6327196;28;20421;-67
2022/08/31 02:41:50;;;;;;;1.08;0.98;;;13.10;99.90;;;;;;6326642;28;20294;-68
2022/08/31 02:44:55;;;;;;;1.33;0.80;;;13.10;99.90;;;;;;6327313;28;20271;-67
2022/08/31 02:48:01;;;;;;;0.80;0.80;;;13.10;99.90;;;;;;6311389;28;20441;-67
2022/08/31 02:51:13;;;;;;;0.85;0.80;;;13.10;99.90;;;;;;6326076;28;20294;-68
2022/08/31 02:54:18;;;;;;;1.45;0.80;;;13.00;99.90;;;;;;6326769;28;20542;-68
2022/08/31 02:57:26;;;;;;;0.70;0.70;;;13.00;99.90;;;;;;6326259;28;20606;-68
2022/08/31 03:00:33;;;;;;;0.80;0.80;;;12.90;99.90;;;;;;6309350;28;20295;-68
2022/08/31 03:03:39;;;;;;;1.10;1.00;;;12.90;99.90;;;;;;6310722;28;20298;-68
2022/08/31 03:06:48;;;;;;;1.73;1.00;;;12.90;99.90;;;;;;6326278;28;20425;-68
2022/08/31 03:09:53;;;;;;;3.10;0.90;;;12.90;99.90;;;;;;6310112;28;20278;-68
2022/08/31 03:13:02;;;;;;;0.70;0.70;;;12.90;99.90;;;;;;6325843;28;20693;-67
2022/08/31 03:16:09;;;;;;;3.55;0.93;;;12.90;99.90;;;;;;6326578;28;20270;-68
2022/08/31 03:19:14;;;;;;;1.98;0.80;;;12.90;99.90;;;;;;6325605;28;20298;-68
2022/08/31 03:22:22;;;;;;;0.80;0.80;;;12.90;99.90;;;;;;6326114;28;20302;-68
2022/08/31 03:25:47;;;;;;;0.95;0.80;;;12.90;99.90;;;;;;6311310;28;20454;-68
2022/08/31 03:28:55;;;;;;;0.75;0.75;;;12.90;99.90;;;;;;6310442;28;20298;-68
2022/08/31 03:32:30;;;;;;;0.75;0.75;;;12.90;99.90;;;;;;6305176;28;20303;-67
2022/08/31 03:35:37;;;;;;;1.15;0.95;;;12.90;99.90;;;;;;6326474;28;20429;-67
2022/08/31 03:38:44;;;;;;;0.95;0.70;;;12.90;99.90;;;;;;6325603;28;20337;-67
2022/08/31 03:41:49;;;;;;;0.68;0.68;;;12.90;99.90;;;;;;6326057;28;20270;-68
2022/08/31 03:44:58;;;;;;;2.28;0.77;;;12.80;99.90;;;;;;6308247;28;20431;-67
2022/08/31 03:48:08;;;;;;;1.83;0.80;;;12.80;99.90;;;;;;6325385;28;20567;-67
2022/08/31 03:51:19;;;;;;;0.75;0.75;;;12.90;99.90;;;;;;6309463;28;20274;-67
2022/08/31 03:54:25;;;;;;;0.80;0.80;;;12.90;99.90;;;;;;6325646;28;20301;-67
2022/08/31 03:57:30;;;;;;;0.70;0.70;;;12.90;99.90;;;;;;6310370;28;20290;-67
2022/08/31 04:00:38;;;;;;;1.65;0.70;;;12.90;99.90;;;;;;6324281;28;20290;-67
2022/08/31 04:03:56;;;;;;;2.40;0.60;;;12.90;99.90;;;;;;6300180;28;20290;-67
2022/08/31 04:07:22;;;;;;;0.85;0.75;;;12.90;99.90;;;;;;6309928;28;20290;-67
2022/08/31 04:10:49;;;;;;;1.65;0.70;;;12.90;99.90;;;;;;6293952;28;20267;-67
2022/08/31 04:13:57;;;;;;;0.75;0.75;;;12.90;99.90;;;;;;6284723;28;20585;-68
2022/08/31 04:17:16;;;;;;;0.75;0.75;;;12.90;99.90;;;;;;6286337;28;20554;-67
2022/08/31 04:20:25;;;;;;;0.70;0.70;;;13.00;99.90;;;;;;6289032;28;20294;-67
2022/08/31 04:23:38;;;;;;;0.75;0.75;;;13.00;99.90;;;;;;6271695;28;20299;-67
2022/08/31 04:26:43;;;;;;;0.80;0.80;;;13.00;99.90;;;;;;6272681;28;20271;-67
2022/08/31 04:29:49;;;;;;;0.80;0.80;;;13.00;99.90;;;;;;6288614;28;20299;-68
2022/08/31 04:32:56;;;;;;;7.53;1.00;;;13.00;99.90;;;;;;6288280;28;20611;-67
2022/08/31 04:36:04;;;;;;;0.70;0.70;;;13.00;99.90;;;;;;6271995;28;20437;-67
2022/08/31 04:39:10;;;;;;;1.35;0.80;;;13.00;99.90;;;;;;6289445;28;20294;-67
2022/08/31 04:42:16;;;;;;;1.00;1.00;;;13.00;99.90;;;;;;6289455;28;20302;-67
2022/08/31 04:45:22;;;;;;;0.85;0.85;;;12.90;99.90;;;;;;6288979;28;20280;-67
2022/08/31 04:48:30;;;;;;;2.40;0.90;;;12.90;99.90;;;;;;6271680;28;20294;-67
2022/08/31 04:51:38;;;;;;;2.63;0.90;;;12.90;99.90;;;;;;6287719;28;20271;-68
2022/08/31 04:54:45;;;;;;;1.85;0.88;;;12.90;99.90;;;;;;6271496;28;20371;-68
2022/08/31 04:57:50;;;;;;;1.00;1.00;;;12.90;99.90;;;;;;6270989;28;20299;-68
2022/08/31 05:00:56;;;;;;;2.20;1.00;;;12.80;99.90;;;;;;6271221;28;20477;-67
2022/08/31 05:04:38;;;;;;;1.73;0.95;;;12.80;99.90;;;;;;6214336;28;20305;-67
2022/08/31 05:07:44;;;;;;;0.95;0.95;;;12.80;99.90;;;;;;6290131;28;20693;-67
2022/08/31 05:10:49;;;;;;;0.75;0.75;;;12.80;99.90;;;;;;6329706;28;20450;-68
2022/08/31 05:13:57;;;;;;;1.13;1.00;;;12.80;99.90;;;;;;6313534;28;20314;-68
2022/08/31 05:17:05;;;;;;;2.53;1.00;;;12.80;99.90;;;;;;6328783;28;20279;-68
2022/08/31 05:20:20;;;;;;;1.10;1.10;;;12.80;99.90;;;;;;6328730;28;20290;-67
2022/08/31 05:23:25;;;;;;;4.72;0.90;;;12.90;99.90;;;;;;6312498;28;20289;-68
2022/08/31 05:26:33;;;;;;;1.10;1.10;;;12.80;99.90;;;;;;6295417;28;20274;-67
2022/08/31 05:29:39;;;;;;;2.03;0.88;;;12.90;99.90;;;;;;6311678;28;20472;-67
2022/08/31 05:33:16;;;;;;;2.88;1.00;;;12.80;99.90;;;;;;6312572;28;20294;-66
2022/08/31 05:36:24;;;;;;;1.00;1.00;;;12.80;99.90;;;;;;6311633;28;20287;-67
2022/08/31 05:39:32;;;;;;;0.98;0.98;;;12.80;99.90;;;;;;6312382;28;20298;-67
2022/08/31 05:42:38;;;;;;;3.40;0.93;;;12.90;99.90;;;;;;6294917;28;20290;-68
2022/08/31 05:45:43;;;;;;;2.70;1.10;;;13.00;99.90;;;;;;6311983;28;20310;-67
2022/08/31 05:48:49;;;;;;;2.50;1.08;;;13.00;99.90;;;;;;6310846;28;20479;-68
2022/08/31 05:51:57;;;;;;;1.00;1.00;;;12.90;99.90;;;;;;6294437;28;20274;-69
2022/08/31 05:55:05;;;;;;;1.95;1.30;;;13.00;99.90;;;;;;6311914;28;20290;-68
2022/08/31 05:58:12;;;;;;;1.10;1.10;;;13.00;99.90;;;;;;6310787;28;20298;-68
2022/08/31 06:01:21;;;;;;;2.33;1.35;;;13.10;99.90;;;;;;6294267;28;20302;-68
2022/08/31 06:04:56;;;;;;;3.53;1.48;;;13.10;99.90;;;;;;6310034;28;20299;-68
2022/08/31 06:08:04;;;;;;;6.88;1.30;;;13.20;99.90;;;;;;6310485;28;20298;-68
2022/08/31 06:11:14;;;;;;;2.80;1.40;;;13.30;99.90;;;;;;6303263;28;20452;-68
2022/08/31 06:14:21;;;;;;;1.38;1.38;;;13.40;99.90;;;;;;6327405;28;20293;-68
2022/08/31 06:17:28;;;;;;;1.30;1.20;;;13.40;99.90;;;;;;6293659;28;20298;-68
2022/08/31 06:20:36;;;;;;;2.70;1.33;;;13.40;99.90;;;;;;6311102;28;20331;-67
2022/08/31 06:23:43;;;;;;;1.60;1.50;;;13.40;99.90;;;;;;6326971;28;20558;-67
2022/08/31 06:26:51;;;;;;;2.05;1.27;;;13.40;99.90;;;;;;6311971;28;20562;-68
2022/08/31 06:30:06;;;;;;;3.15;1.40;;;13.30;99.90;;;;;;6292867;28;20574;-68
2022/08/31 06:33:13;;;;;;;1.20;1.20;;;13.30;99.90;;;;;;6327241;28;20478;-68
2022/08/31 06:36:39;;;;;;;1.63;1.50;;;13.30;99.90;;;;;;6310279;28;20274;-68
2022/08/31 06:39:59;;;;;;;1.45;1.35;;;13.40;99.90;;;;;;6309349;28;20276;-68
2022/08/31 06:43:08;;;;;;;1.30;1.30;;;13.40;99.90;;;;;;6310488;28;20298;-68
2022/08/31 06:46:33;;;;;;;1.52;1.52;;;13.50;99.90;;;;;;6310395;28;20436;-68
2022/08/31 06:49:46;;;;;;;1.83;1.73;;;13.80;99.90;;;;;;6309661;28;20307;-68
2022/08/31 06:52:54;;;;;;;1.20;1.20;;;13.90;99.90;;;;;;6326614;28;20298;-68
2022/08/31 06:56:06;;;;;;;2.13;1.40;;;13.90;99.90;;;;;;6327166;28;20286;-68
2022/08/31 07:00:04;;;;;;;1.30;1.20;;;14.10;99.90;;;;;;6295844;28;20275;-68
2022/08/31 07:03:31;;;;;;;3.72;1.00;;;14.20;99.90;;;;;;6292276;28;20298;-68
2022/08/31 07:06:41;;;;;;;1.13;1.13;;;14.20;99.90;;;;;;6310845;28;20302;-68
2022/08/31 07:09:47;;;;;;;1.75;1.10;;;14.30;99.90;;;;;;6325817;28;20306;-67
2022/08/31 07:12:54;;;;;;;1.98;1.20;;;14.40;99.90;;;;;;6310731;28;20302;-67
2022/08/31 07:16:04;;;;;;;1.85;1.30;;;14.50;99.90;;;;;;6311406;28;20270;-68
2022/08/31 07:19:15;;;;;;;2.75;1.33;;;14.80;99.90;;;;;;6325725;28;20457;-67
2022/08/31 07:22:21;;;;;;;1.95;1.10;;;14.80;99.90;;;;;;6325051;28;20298;-67
2022/08/31 07:25:32;;;;;;;1.13;1.13;;;14.90;99.90;;;;;;6309961;28;20451;-68
2022/08/31 07:28:42;;;;;;;2.78;1.45;;;14.90;99.90;;;;;;6326021;28;20294;-67
2022/08/31 07:31:49;;;;;;;4.10;1.10;;;14.90;99.90;;;;;;6326466;28;20274;-67
2022/08/31 07:34:55;;;;;;;0.98;0.98;;;14.90;99.90;;;;;;6308232;28;20283;-67
2022/08/31 07:44:57;;;;;;;0.93;0.93;;;15.00;99.90;;;;;;6308105;28;20279;-68
2022/08/31 07:48:03;;;;;;;1.00;1.00;;;15.10;99.90;;;;;;6325653;28;20294;-69
2022/08/31 07:51:36;;;;;;;0.85;0.85;;;15.20;99.90;;;;;;6302757;28;20270;-68
2022/08/31 07:54:53;;;;;;;1.75;1.65;;;15.30;99.90;;;;;;6330757;28;20294;-68
2022/08/31 07:58:11;;;;;;;2.15;1.00;;;15.30;99.90;;;;;;6314697;28;20578;-69
2022/08/31 08:01:19;;;;;;;2.80;1.10;;;15.20;99.90;;;;;;6330385;28;20275;-69
2022/08/31 08:04:25;;;;;;;1.10;1.10;;;15.20;99.90;;;;;;6314836;28;20302;-69
2022/08/31 08:07:51;;;;;;;2.05;1.13;;;15.20;99.90;;;;;;6309288;28;20299;-69
2022/08/31 08:11:28;;;;;;;5.82;4.53;;;15.10;99.90;;;;;;6261129;28;20266;-68
2022/08/31 08:14:59;;;;;;;1.80;1.80;;;15.20;99.90;;;;;;6330076;28;20452;-69
2022/08/31 08:18:25;;;;;;;1.10;1.10;;;15.20;99.90;;;;;;6315215;28;20299;-68
2022/08/31 08:21:34;;;;;;;3.38;1.30;;;15.20;99.90;;;;;;6314124;28;20565;-69
2022/08/31 08:24:41;;;;;;;3.92;0.85;;;15.40;99.90;;;;;;6330143;28;20302;-68
2022/08/31 08:28:16;;;;;;;1.65;0.80;;;15.40;99.90;;;;;;6329708;28;20298;-68
2022/08/31 08:31:42;;;;;;;0.85;0.85;;;15.30;99.90;;;;;;6330261;28;20270;-68
2022/08/31 08:34:49;;;;;;;2.17;0.95;;;15.40;99.90;;;;;;6314654;28;20302;-68
2022/08/31 08:37:56;;;;;;;1.40;1.17;;;15.40;99.90;;;;;;6329595;28;20294;-68
2022/08/31 08:41:17;;;;;;;1.05;1.05;;;15.40;99.90;;;;;;6313836;28;20270;-68
2022/08/31 08:44:26;;;;;;;0.93;0.93;;;15.50;99.90;;;;;;6312778;28;20303;-67
2022/08/31 08:47:36;;;;;;;2.17;0.85;;;15.50;99.90;;;;;;6312995;28;20478;-68
2022/08/31 08:50:47;;;;;;;2.08;0.70;;;15.50;99.90;;;;;;6312953;28;20278;-67
2022/08/31 08:54:09;;;;;;;2.00;1.13;;;15.60;99.90;;;;;;6329063;28;20297;-67
2022/08/31 08:57:21;;;;;;;0.90;0.90;;;15.70;99.90;;;;;;6329526;28;20601;-67
2022/08/31 09:00:28;;;;;;;0.82;0.82;;;15.80;99.90;;;;;;6329769;28;20270;-69
2022/08/31 09:03:46;;;;;;;2.78;2.08;;;15.80;99.90;;;;;;6328958;28;20301;-68
2022/08/31 09:07:19;;;;;;;4.82;4.53;;;15.90;99.90;;;;;;6288795;28;20267;-68
2022/08/31 09:10:33;;;;;;;2.58;2.55;;;16.00;99.90;;;;;;6279693;28;20268;-68
2022/08/31 09:13:51;;;;;;;1.33;1.33;;;16.00;99.90;;;;;;6287355;28;20485;-67
2022/08/31 09:17:05;;;;;;;4.68;1.42;;;16.10;99.90;;;;;;6287021;28;20275;-68
2022/08/31 09:20:15;;;;;;;1.00;1.00;;;16.30;99.90;;;;;;6287736;28;20267;-67
2022/08/31 09:23:22;;;;;;;1.27;1.27;;;16.20;99.40;;;;;;6286658;28;20484;-68
2022/08/31 09:26:34;;;;;;;0.88;0.88;;;16.20;98.90;;;;;;6287819;28;20559;-68
2022/08/31 09:29:55;;;;;;;0.70;0.70;;;16.30;99.10;;;;;;6288082;28;20483;-67
2022/08/31 09:33:00;;;;;;;1.20;1.20;;;16.30;99.20;;;;;;6287864;28;20482;-68
2022/08/31 09:36:18;;;;;;;2.95;1.00;;;16.40;99.90;;;;;;6287918;28;20275;-67
2022/08/31 09:39:31;;;;;;;1.00;1.00;;;16.20;98.60;;;;;;6287801;28;20295;-68
2022/08/31 09:42:42;;;;;;;1.10;1.10;;;16.20;99.10;;;;;;6281628;28;20291;-67
2022/08/31 09:45:57;;;;;;;0.90;0.90;;;16.20;99.00;;;;;;6287982;28;20290;-67
2022/08/31 09:49:05;;;;;;;4.63;0.95;;;16.30;98.30;;;;;;6287768;28;20295;-68
2022/08/31 09:55:48;;;;;;;2.25;1.00;;;16.30;98.10;;;;;;6286891;28;20274;-68
2022/08/31 09:58:55;;;;;;;2.03;0.90;;;16.30;98.60;;;;;;6287230;28;20307;-68
2022/08/31 10:02:02;;;;;;;0.90;0.90;;;16.30;98.30;;;;;;6286795;28;20275;-68
2022/08/31 10:05:39;;;;;;;1.30;1.10;;;16.30;98.80;;;;;;6298787;28;20310;-68
2022/08/31 10:08:52;;;;;;;1.88;1.35;;;16.40;98.40;;;;;;6312099;28;20290;-67
2022/08/31 10:12:04;;;;;;;1.58;1.00;;;16.40;97.50;;;;;;6303817;28;20268;-68
2022/08/31 10:15:16;;;;;;;2.00;1.00;;;16.60;97.20;;;;;;6311982;28;20278;-67
2022/08/31 10:18:29;;;;;;;1.05;1.05;;;16.70;97.00;;;;;;6311874;28;20331;-67
2022/08/31 10:21:44;;;;;;;1.02;1.02;;;16.80;97.60;;;;;;6312017;28;20270;-69
2022/08/31 10:25:05;;;;;;;1.20;1.20;;;16.80;97.00;;;;;;6311264;28;20461;-67
2022/08/31 10:28:17;;;;;;;0.70;0.70;;;17.00;97.40;;;;;;6311553;28;20366;-68
2022/08/31 10:31:30;;;;;;;0.80;0.80;;;17.10;97.50;;;;;;6311866;28;20266;-67
2022/08/31 10:38:11;;;;;;;0.80;0.80;;;17.00;96.90;;;;;;6311056;28;20293;-66
2022/08/31 10:41:27;;;;;;;0.70;0.70;;;16.80;96.70;;;;;;6311866;28;20291;-67
2022/08/31 10:44:41;;;;;;;0.70;0.70;;;16.70;96.90;;;;;;6310910;28;20318;-68
2022/08/31 10:47:56;;;;;;;0.95;0.95;;;16.80;97.10;;;;;;6310745;28;20472;-67
2022/08/31 10:51:18;;;;;;;0.80;0.80;;;16.80;96.90;;;;;;6310888;28;20274;-68
2022/08/31 10:54:34;;;;;;;0.93;0.93;;;16.80;96.80;;;;;;6311129;28;20306;-68
2022/08/31 10:57:49;;;;;;;0.70;0.70;;;16.90;97.20;;;;;;6310669;28;20290;-68
2022/08/31 11:01:03;;;;;;;1.77;0.75;;;16.90;97.60;;;;;;6311239;28;20270;-68
2022/08/31 11:04:57;;;;;;;1.48;1.30;;;17.00;97.40;;;;;;6310444;28;20298;-68
2022/08/31 11:08:37;;;;;;;1.20;1.10;;;17.10;97.40;;;;;;6307429;28;20290;-68
2022/08/31 11:11:46;;;;;;;3.38;1.15;;;17.20;96.60;;;;;;6311206;28;20275;-68
2022/08/31 11:15:43;;;;;;;0.90;0.90;;;17.20;97.00;;;;;;6310861;28;20310;-68
2022/08/31 11:19:16;;;;;;;0.65;0.65;;;17.10;96.60;;;;;;6310361;28;20294;-68
2022/08/31 11:22:46;;;;;;;2.05;0.75;;;17.00;97.40;;;;;;6310913;28;20290;-68
2022/08/31 11:26:39;;;;;;;2.08;0.90;;;16.90;95.70;;;;;;6310215;28;20468;-68
2022/08/31 11:29:55;;;;;;;1.92;0.98;;;17.10;96.40;;;;;;6310553;28;20461;-68
2022/08/31 11:33:05;;;;;;;0.80;0.80;;;17.30;95.10;;;;;;6310468;28;20287;-68
2022/08/31 11:36:12;;;;;;;0.70;0.70;;;17.20;95.40;;;;;;6310986;28;20270;-67
2022/08/31 11:39:39;;;;;;;0.80;0.80;;;17.20;95.10;;;;;;6310435;28;20294;-67
2022/08/31 11:42:56;;;;;;;2.92;0.65;;;17.30;95.50;;;;;;6310520;28;20286;-67
2022/08/31 11:46:44;;;;;;;3.83;0.80;;;17.30;95.40;;;;;;6310869;28;20290;-68
2022/08/31 11:49:54;;;;;;;0.57;0.57;;;17.40;94.90;;;;;;6310210;28;20298;-68
2022/08/31 11:53:19;;;;;;;0.75;0.73;;;17.40;94.90;;;;;;6310147;28;20294;-68
2022/08/31 11:56:35;;;;;;;0.70;0.70;;;17.20;94.60;;;;;;6310477;28;20274;-67
2022/08/31 11:59:44;;;;;;;2.83;0.70;;;17.20;95.00;;;;;;6310084;28;20298;-67
2022/08/31 12:03:08;;;;;;;0.60;0.60;;;17.20;94.70;;;;;;6310358;28;20299;-67
2022/08/31 12:07:08;;;;;;;0.90;0.90;;;17.30;94.50;;;;;;6292628;28;20303;-67
2022/08/31 12:10:34;;;;;;;3.75;0.75;;;17.40;94.50;;;;;;6278247;28;20281;-68
2022/08/31 12:13:48;;;;;;;0.60;0.60;;;17.50;94.10;;;;;;6278159;28;20294;-68
2022/08/31 12:17:02;;;;;;;0.65;0.65;;;17.50;94.60;;;;;;6284800;28;20271;-68
2022/08/31 12:20:12;;;;;;;1.27;0.85;;;17.60;94.90;;;;;;6285185;28;20275;-67
2022/08/31 12:23:36;;;;;;;0.57;0.57;;;17.50;94.20;;;;;;6284705;28;20295;-68
2022/08/31 12:27:10;;;;;;;0.63;0.63;;;17.40;94.80;;;;;;6267252;28;20317;-68
2022/08/31 12:30:22;;;;;;;0.60;0.60;;;17.50;94.20;;;;;;6284636;28;20275;-68
2022/08/31 12:33:29;;;;;;;1.45;0.60;;;17.60;94.60;;;;;;6284256;28;20295;-68
2022/08/31 12:36:37;;;;;;;0.60;0.60;;;17.60;94.60;;;;;;6285403;28;20275;-68
2022/08/31 12:39:42;;;;;;;2.80;0.80;;;17.60;94.20;;;;;;6287840;28;20295;-68
2022/08/31 12:42:58;;;;;;;0.60;0.60;;;17.50;94.90;;;;;;6289120;28;20298;-67
2022/08/31 12:46:43;;;;;;;0.82;0.82;;;17.50;94.90;;;;;;6289115;28;20292;-68
2022/08/31 12:50:08;;;;;;;0.80;0.80;;;17.30;96.70;;;;;;6285732;28;20308;-67
2022/08/31 12:53:54;;;;;;;0.70;0.70;;;16.80;97.90;;;;;;6289067;28;20295;-67
2022/08/31 12:57:07;;;;;;;1.15;0.65;;;16.80;98.50;;;;;;6289028;28;20271;-67
2022/08/31 13:00:21;;;;;;;0.70;0.70;;;16.70;99.00;;;;;;6289150;28;20267;-67
2022/08/31 13:03:29;;;;;;;0.70;0.70;;;16.60;98.60;;;;;;6288683;28;20291;-67
2022/08/31 13:06:39;;;;;;;0.73;0.73;;;16.60;99.00;;;;;;6288993;28;20299;-67
2022/08/31 13:09:45;;;;;;;0.65;0.65;;;16.70;99.50;;;;;;6288643;28;20315;-68
2022/08/31 13:12:53;;;;;;;0.90;0.90;;;16.70;99.40;;;;;;6288414;28;20299;-67
2022/08/31 13:16:03;;;;;;;1.65;0.80;;;16.80;99.40;;;;;;6288766;28;20275;-67
2022/08/31 13:19:24;;;;;;;1.40;0.80;;;17.10;99.70;;;;;;6288196;28;20618;-68
2022/08/31 13:22:33;;;;;;;0.75;0.75;;;17.20;99.20;;;;;;6288383;28;20295;-67
2022/08/31 13:25:40;;;;;;;0.80;0.80;;;17.30;99.10;;;;;;6288387;28;20272;-67
2022/08/31 13:28:50;;;;;;;2.47;2.35;;;17.40;97.80;;;;;;6288281;28;20307;-67
2022/08/31 13:31:56;;;;;;;0.95;0.95;;;17.50;97.20;;;;;;6287694;28;20271;-68
2022/08/31 13:35:07;;;;;;;0.98;0.90;;;17.40;97.30;;;;;;6288657;28;20267;-69
2022/08/31 13:38:14;;;;;;;0.80;0.80;;;17.20;99.90;;;;;;6287687;28;20304;-68
2022/08/31 13:41:26;;;;;;;0.90;0.90;;;16.80;99.90;;;;;;6288540;28;20279;-68
2022/08/31 13:44:36;;;;;;;0.90;0.90;;;16.70;99.90;;;;;;6287706;28;20299;-68
2022/08/31 13:47:51;;;;;;;0.90;0.90;;;16.20;99.90;;;;;;6287150;28;20299;-68
2022/08/31 13:51:12;;;;;;;2.40;0.80;;;16.30;99.90;;;;;;6287018;28;20267;-69
2022/08/31 13:54:29;;;;;;;1.27;1.13;;;16.30;99.90;;;;;;6287481;28;20323;-68
2022/08/31 13:57:37;;;;;;;3.28;0.95;;;16.20;99.90;;;;;;6287578;28;20299;-68
2022/08/31 14:00:43;;;;;;;1.65;0.90;;;16.10;99.90;;;;;;6286336;28;20275;-69
2022/08/31 14:03:57;;;;;;;0.93;0.90;;;16.20;99.90;;;;;;6287538;28;20599;-68
2022/08/31 14:07:03;;;;;;;1.05;1.05;;;16.30;99.90;;;;;;6287596;28;20302;-69
2022/08/31 14:10:18;;;;;;;0.88;0.88;;;16.40;99.90;;;;;;6286924;28;20259;-68
2022/08/31 14:13:26;;;;;;;0.95;0.95;;;16.50;99.90;;;;;;6287088;28;20294;-68
2022/08/31 14:16:37;;;;;;;1.02;1.02;;;16.50;99.90;;;;;;6287689;28;20224;-69
2022/08/31 14:19:45;;;;;;;1.08;1.08;;;16.60;99.90;;;;;;6287104;28;20315;-68
2022/08/31 14:22:50;;;;;;;1.20;1.20;;;16.70;99.90;;;;;;6286791;28;20476;-68
2022/08/31 14:25:58;;;;;;;3.53;1.02;;;16.60;99.90;;;;;;6287415;28;20275;-68
2022/08/31 14:29:08;;;;;;;0.98;0.98;;;16.50;99.90;;;;;;6286724;28;20302;-69
2022/08/31 14:32:14;;;;;;;1.15;1.15;;;16.40;99.90;;;;;;6286944;28;20291;-68
2022/08/31 14:35:24;;;;;;;2.10;2.10;;;16.30;99.90;;;;;;6286806;28;20267;-67
2022/08/31 14:38:30;;;;;;;4.03;1.60;;;16.30;99.90;;;;;;6286048;28;20294;-67
2022/08/31 14:41:35;;;;;;;0.90;0.90;;;16.20;99.90;;;;;;6286380;28;20276;-67
2022/08/31 14:44:43;;;;;;;0.70;0.70;;;16.10;99.90;;;;;;6286078;28;20597;-68
2022/08/31 14:47:51;;;;;;;1.08;1.08;;;16.10;99.90;;;;;;6286022;28;20303;-67
2022/08/31 14:50:58;;;;;;;1.00;1.00;;;16.00;99.90;;;;;;6286322;28;20271;-67
2022/08/31 14:54:05;;;;;;;1.20;1.20;;;16.10;99.90;;;;;;6286461;28;20314;-68
2022/08/31 14:57:14;;;;;;;0.90;0.90;;;16.20;99.90;;;;;;6285738;28;20275;-68
2022/08/31 15:00:21;;;;;;;1.23;1.23;;;16.20;99.90;;;;;;6286162;28;20267;-67
2022/08/31 15:03:29;;;;;;;0.85;0.85;;;16.20;99.90;;;;;;6285860;28;20315;-67
2022/08/31 15:06:36;;;;;;;1.00;1.00;;;16.20;99.90;;;;;;6286444;28;20299;-68
2022/08/31 15:09:42;;;;;;;0.90;0.90;;;16.30;99.90;;;;;;6285505;28;20299;-67
2022/08/31 15:12:49;;;;;;;1.27;0.90;;;16.30;99.90;;;;;;6285172;28;20295;-67
2022/08/31 15:15:56;;;;;;;0.90;0.90;;;16.30;99.90;;;;;;6286000;28;20342;-68
2022/08/31 15:19:11;;;;;;;0.70;0.70;;;16.30;99.60;;;;;;6285386;28;20406;-68
2022/08/31 15:22:19;;;;;;;0.80;0.80;;;16.30;99.60;;;;;;6285776;28;20295;-68
2022/08/31 15:25:25;;;;;;;2.83;1.50;;;16.20;99.90;;;;;;6285683;28;20271;-68
2022/08/31 15:28:36;;;;;;;0.80;0.80;;;16.10;99.40;;;;;;6285070;28;20303;-68
2022/08/31 15:31:45;;;;;;;1.00;0.88;;;16.10;99.60;;;;;;6285938;28;20272;-68
2022/08/31 15:34:56;;;;;;;1.10;1.10;;;16.10;99.50;;;;;;6284800;28;20291;-69
2022/08/31 15:38:05;;;;;;;0.93;0.93;;;16.20;99.90;;;;;;6284908;28;20303;-68
2022/08/31 15:41:11;;;;;;;0.98;0.98;;;16.30;99.30;;;;;;6285153;28;20463;-68
2022/08/31 15:44:18;;;;;;;1.00;1.00;;;16.30;99.50;;;;;;6284632;28;20315;-68
2022/08/31 15:50:52;;;;;;;4.43;0.80;;;16.20;99.00;;;;;;6285820;28;20272;-67
2022/08/31 15:54:00;;;;;;;0.95;0.95;;;16.20;98.80;;;;;;6285274;28;20290;-67
2022/08/31 15:57:26;;;;;;;1.40;1.40;;;16.20;98.80;;;;;;6284490;28;20295;-67
2022/08/31 16:00:34;;;;;;;1.85;1.50;;;16.20;98.70;;;;;;6284952;28;20279;-68
2022/08/31 16:03:40;;;;;;;1.25;1.25;;;16.30;98.90;;;;;;6285171;28;20290;-68
2022/08/31 16:06:47;;;;;;;0.85;0.85;;;16.30;99.90;;;;;;6286951;28;20295;-67
2022/08/31 16:09:54;;;;;;;3.13;1.00;;;15.90;99.90;;;;;;6284234;28;20299;-68
2022/08/31 16:13:01;;;;;;;0.88;0.88;;;15.80;99.90;;;;;;6286066;28;20291;-67
2022/08/31 16:16:09;;;;;;;5.57;1.15;;;15.70;99.90;;;;;;6290124;28;20270;-68
2022/08/31 16:19:17;;;;;;;0.88;0.88;;;15.70;99.90;;;;;;6289554;28;20298;-68
2022/08/31 16:22:40;;;;;;;2.47;1.10;;;15.60;99.90;;;;;;6289479;28;20291;-68
2022/08/31 16:25:47;;;;;;;2.20;1.17;;;15.60;99.90;;;;;;6289931;28;20279;-68
2022/08/31 16:28:53;;;;;;;1.02;1.02;;;15.60;99.90;;;;;;6289600;28;20303;-68
2022/08/31 16:31:59;;;;;;;0.90;0.90;;;15.50;99.90;;;;;;6289238;28;20291;-68
2022/08/31 16:35:05;;;;;;;1.33;0.82;;;15.40;99.90;;;;;;6289651;28;20276;-70
2022/08/31 16:38:16;;;;;;;1.35;1.20;;;15.40;99.90;;;;;;6289455;28;20300;-67
2022/08/31 16:41:25;;;;;;;4.43;1.20;;;15.40;99.90;;;;;;6289417;28;20351;-67
2022/08/31 16:44:35;;;;;;;2.88;0.80;;;15.40;99.90;;;;;;6289350;28;20351;-68
2022/08/31 16:47:41;;;;;;;1.33;1.27;;;15.40;99.90;;;;;;6288903;28;20464;-67
2022/08/31 16:50:46;;;;;;;0.90;0.90;;;15.40;99.90;;;;;;6289077;28;20291;-68
2022/08/31 16:53:55;;;;;;;0.70;0.70;;;15.30;99.90;;;;;;6289005;28;20300;-68
2022/08/31 16:57:02;;;;;;;2.53;1.10;;;15.30;99.90;;;;;;6289055;28;20272;-68
2022/08/31 17:00:10;;;;;;;0.90;0.90;;;15.30;99.90;;;;;;6289629;28;20271;-68
2022/08/31 17:03:17;;;;;;;1.20;1.13;;;15.40;99.90;;;;;;6288886;28;20295;-68